Time;durP1;ratioP1;P1;durP2;ratioP2;P2;SDS_P1;SDS_P2;PMS_P1;PMS_P2;Temp;Humidity;BMP_temperature;BMP_pressure;BME280_temperature;BME280_humidity;BME280_pressure;Samples;Min_cycle;Max_cycle;Signal;HPM_P1;HPM_P2
2023/07/07 00:01:01;;;;;;;10.13;4.22;;;17.60;70.90;;;;;;5069762;28;20398;-66
2023/07/07 00:03:27;;;;;;;7.22;4.40;;;17.60;70.90;;;;;;5052314;28;20319;-66
2023/07/07 00:05:53;;;;;;;9.65;4.43;;;17.60;71.00;;;;;;5066540;28;20032;-66
2023/07/07 00:08:19;;;;;;;7.72;3.95;;;17.50;71.00;;;;;;5051960;28;20035;-66
2023/07/07 00:10:45;;;;;;;7.82;4.05;;;17.50;71.00;;;;;;5068706;28;20028;-66
2023/07/07 00:13:12;;;;;;;7.78;4.25;;;17.50;71.10;;;;;;5069015;28;20025;-66
2023/07/07 00:15:44;;;;;;;8.23;5.32;;;17.50;71.10;;;;;;5068082;28;20020;-66
2023/07/07 00:18:12;;;;;;;7.85;4.45;;;17.50;71.20;;;;;;5068861;28;20357;-66
2023/07/07 00:20:38;;;;;;;8.70;4.97;;;17.40;71.20;;;;;;5068458;28;20040;-66
2023/07/07 00:23:03;;;;;;;7.68;4.30;;;17.40;71.10;;;;;;5069216;28;20090;-66
2023/07/07 00:25:29;;;;;;;7.97;5.00;;;17.40;71.20;;;;;;5064875;28;20039;-66
2023/07/07 00:27:55;;;;;;;8.82;4.65;;;17.40;71.20;;;;;;5067091;28;20074;-66
2023/07/07 00:30:21;;;;;;;11.35;4.65;;;17.40;71.20;;;;;;5052110;28;20016;-66
2023/07/07 00:32:46;;;;;;;7.57;4.85;;;17.40;71.30;;;;;;5070287;28;20047;-66
2023/07/07 00:35:12;;;;;;;9.93;5.10;;;17.40;71.30;;;;;;5066571;28;20369;-66
2023/07/07 00:37:38;;;;;;;7.95;4.60;;;17.30;71.30;;;;;;5052224;28;20426;-66
2023/07/07 00:40:05;;;;;;;10.52;5.10;;;17.30;71.40;;;;;;5051941;28;20435;-66
2023/07/07 00:42:31;;;;;;;8.55;4.82;;;17.30;71.40;;;;;;5051732;28;20043;-66
2023/07/07 00:45:20;;;;;;;9.30;4.30;;;17.30;71.50;;;;;;5051023;28;20947;-66
2023/07/07 00:47:57;;;;;;;8.65;5.25;;;17.30;71.50;;;;;;5050340;28;20013;-66
2023/07/07 00:50:28;;;;;;;8.63;4.80;;;17.20;71.50;;;;;;5036443;28;20030;-66
2023/07/07 00:52:54;;;;;;;8.65;4.60;;;17.20;71.60;;;;;;5049738;28;20027;-66
2023/07/07 00:55:30;;;;;;;9.10;4.57;;;17.20;71.60;;;;;;5067890;28;20467;-66
2023/07/07 00:58:01;;;;;;;9.73;5.00;;;17.20;71.80;;;;;;5047726;28;20025;-66
2023/07/07 01:00:27;;;;;;;8.65;4.85;;;17.20;71.80;;;;;;5050827;28;20033;-66
2023/07/07 01:02:57;;;;;;;7.75;4.70;;;17.20;71.80;;;;;;5068400;28;20028;-66
2023/07/07 01:05:28;;;;;;;9.40;5.30;;;17.20;71.90;;;;;;5050117;28;20040;-66
2023/07/07 01:07:56;;;;;;;;;;;17.10;71.90;;;;;;5068545;28;20032;-66
2023/07/07 01:10:22;;;;;;;7.90;4.70;;;17.10;71.80;;;;;;5066016;28;20325;-66
2023/07/07 01:12:50;;;;;;;8.43;4.45;;;17.10;71.90;;;;;;5035837;28;20036;-66
2023/07/07 01:15:15;;;;;;;9.35;5.32;;;17.10;72.00;;;;;;5066676;28;20074;-66
2023/07/07 01:17:41;;;;;;;8.15;4.65;;;17.10;72.00;;;;;;5049677;28;20067;-66
2023/07/07 01:20:19;;;;;;;10.18;5.70;;;17.10;72.00;;;;;;5051184;28;20032;-66
2023/07/07 01:23:24;;;;;;;9.18;5.22;;;17.10;72.10;;;;;;5068876;28;20064;-66
2023/07/07 01:26:04;;;;;;;9.77;4.97;;;17.00;72.00;;;;;;5048349;28;20453;-66
2023/07/07 01:28:53;;;;;;;8.32;5.25;;;17.00;72.20;;;;;;5049543;28;20036;-66
2023/07/07 01:31:52;;;;;;;8.63;4.97;;;17.00;72.20;;;;;;5066804;28;20056;-66
2023/07/07 01:34:19;;;;;;;8.82;4.93;;;17.00;72.20;;;;;;5068566;28;20032;-66
2023/07/07 01:36:45;;;;;;;8.73;5.25;;;16.90;72.20;;;;;;5049605;28;20133;-66
2023/07/07 01:39:12;;;;;;;8.30;5.10;;;16.90;72.20;;;;;;5050394;28;20059;-66
2023/07/07 01:41:46;;;;;;;8.73;5.20;;;16.90;72.30;;;;;;5047549;28;20036;-66
2023/07/07 01:44:24;;;;;;;8.88;4.65;;;16.90;72.30;;;;;;5065592;28;20032;-66
2023/07/07 01:47:00;;;;;;;8.10;5.07;;;16.90;72.30;;;;;;5049723;28;20036;-66
2023/07/07 01:49:31;;;;;;;9.77;5.10;;;16.80;72.30;;;;;;5066027;28;20318;-66
2023/07/07 01:52:07;;;;;;;9.25;4.95;;;16.80;72.40;;;;;;5067850;28;20033;-66
2023/07/07 01:54:38;;;;;;;8.50;4.88;;;16.80;72.50;;;;;;5067462;28;20040;-66
2023/07/07 01:57:04;;;;;;;;;;;16.80;72.50;;;;;;5050485;28;20028;-66
2023/07/07 01:59:31;;;;;;;7.70;4.72;;;16.80;72.40;;;;;;5049582;28;19918;-66
2023/07/07 02:01:57;;;;;;;8.55;4.53;;;16.70;72.50;;;;;;5050821;28;20028;-66
2023/07/07 02:04:23;;;;;;;8.48;4.60;;;16.70;72.50;;;;;;5060772;28;20056;-66
2023/07/07 02:06:49;;;;;;;7.35;4.90;;;16.70;72.60;;;;;;5052759;28;20108;-66
2023/07/07 02:09:15;;;;;;;7.68;4.95;;;16.70;72.60;;;;;;5038525;28;20417;-65
2023/07/07 02:11:41;;;;;;;8.32;4.53;;;16.60;72.60;;;;;;5051104;28;20033;-66
2023/07/07 02:14:06;;;;;;;7.82;4.70;;;16.70;72.70;;;;;;5027768;28;20056;-66
2023/07/07 02:16:32;;;;;;;8.77;5.22;;;16.60;72.70;;;;;;5040855;28;20071;-66
2023/07/07 02:18:58;;;;;;;9.55;5.45;;;16.60;72.70;;;;;;5051692;28;20024;-66
2023/07/07 02:21:24;;;;;;;9.32;5.03;;;16.60;72.80;;;;;;5056647;28;20096;-66
2023/07/07 02:23:50;;;;;;;8.50;4.70;;;16.60;72.90;;;;;;5059027;28;20075;-66
2023/07/07 02:26:18;;;;;;;9.18;5.15;;;16.60;72.90;;;;;;5061194;28;20059;-66
2023/07/07 02:28:45;;;;;;;8.00;4.88;;;16.60;72.90;;;;;;5022177;28;20060;-66
2023/07/07 02:31:12;;;;;;;8.32;5.20;;;16.60;73.00;;;;;;5061207;28;20041;-66
2023/07/07 02:33:38;;;;;;;8.57;5.32;;;16.60;73.00;;;;;;5040507;28;20033;-66
2023/07/07 02:36:07;;;;;;;9.23;5.40;;;16.60;73.00;;;;;;5042602;28;20037;-66
2023/07/07 02:38:34;;;;;;;9.38;5.30;;;16.50;73.00;;;;;;5055276;28;20059;-66
2023/07/07 02:41:01;;;;;;;9.48;5.35;;;16.50;73.00;;;;;;5052675;28;20033;-66
2023/07/07 02:43:28;;;;;;;11.10;5.63;;;16.50;73.10;;;;;;5035376;28;20041;-66
2023/07/07 02:45:54;;;;;;;8.15;5.05;;;16.50;73.10;;;;;;5056982;28;20063;-66
2023/07/07 02:48:21;;;;;;;8.93;5.00;;;16.50;73.10;;;;;;5054897;28;20040;-66
2023/07/07 02:50:57;;;;;;;8.68;5.45;;;16.50;73.20;;;;;;5062463;28;20489;-66
2023/07/07 02:53:33;;;;;;;8.63;5.20;;;16.40;73.20;;;;;;5058216;28;20467;-66
2023/07/07 02:55:59;;;;;;;9.45;5.03;;;16.40;73.30;;;;;;5060048;28;20029;-66
2023/07/07 02:58:25;;;;;;;8.27;4.95;;;16.40;73.30;;;;;;5060224;28;20036;-66
2023/07/07 03:00:52;;;;;;;8.98;4.97;;;16.40;73.30;;;;;;5045827;28;20032;-66
2023/07/07 03:03:19;;;;;;;8.02;5.07;;;16.40;73.40;;;;;;5025726;28;20054;-66
2023/07/07 03:05:46;;;;;;;10.43;4.88;;;16.40;73.40;;;;;;5054303;28;20037;-66
2023/07/07 03:08:12;;;;;;;10.13;5.68;;;16.40;73.40;;;;;;5054290;28;20109;-66
2023/07/07 03:10:40;;;;;;;9.00;5.15;;;16.40;73.40;;;;;;5042504;28;20094;-67
2023/07/07 03:13:08;;;;;;;8.23;5.53;;;16.30;73.40;;;;;;5051668;28;20067;-67
2023/07/07 03:15:39;;;;;;;9.02;5.43;;;16.30;73.40;;;;;;5049785;28;20025;-67
2023/07/07 03:18:09;;;;;;;10.55;5.28;;;16.30;73.50;;;;;;5044705;28;20324;-67
2023/07/07 03:20:40;;;;;;;9.05;5.78;;;16.30;73.50;;;;;;5058422;28;20020;-67
2023/07/07 03:23:09;;;;;;;8.35;5.05;;;16.30;73.60;;;;;;5056614;28;20021;-67
2023/07/07 03:25:36;;;;;;;9.38;5.72;;;16.30;73.60;;;;;;5059065;28;20104;-67
2023/07/07 03:28:02;;;;;;;9.63;5.70;;;16.30;73.60;;;;;;5058534;28;20017;-67
2023/07/07 03:30:34;;;;;;;9.68;5.68;;;16.30;73.60;;;;;;5058424;28;20029;-67
2023/07/07 03:33:06;;;;;;;8.25;5.25;;;16.30;73.60;;;;;;5056019;28;20020;-67
2023/07/07 03:35:32;;;;;;;8.23;5.00;;;16.30;73.70;;;;;;5057491;28;20055;-67
2023/07/07 03:37:58;;;;;;;12.95;4.78;;;16.20;73.60;;;;;;5057178;28;20020;-67
2023/07/07 03:40:24;;;;;;;8.80;5.47;;;16.20;73.70;;;;;;5058140;28;20028;-67
2023/07/07 03:42:50;;;;;;;9.57;6.20;;;16.20;73.70;;;;;;5039804;28;20032;-67
2023/07/07 03:45:16;;;;;;;9.45;5.80;;;16.20;73.70;;;;;;5059178;28;20017;-67
2023/07/07 03:47:46;;;;;;;8.40;5.15;;;16.20;73.80;;;;;;5057620;28;20032;-67
2023/07/07 03:50:12;;;;;;;9.75;5.25;;;16.20;73.80;;;;;;5054681;28;20028;-67
2023/07/07 03:52:39;;;;;;;9.98;5.32;;;16.20;73.80;;;;;;5056514;28;20016;-67
2023/07/07 03:55:05;;;;;;;9.15;5.40;;;16.20;73.90;;;;;;5058296;28;20074;-67
2023/07/07 03:57:31;;;;;;;10.25;5.55;;;16.20;73.90;;;;;;5040676;28;20028;-67
2023/07/07 03:59:57;;;;;;;8.32;5.80;;;16.20;73.90;;;;;;5057740;28;20098;-67
2023/07/07 04:02:23;;;;;;;12.43;5.57;;;16.20;74.00;;;;;;5055732;28;20429;-67
2023/07/07 04:04:48;;;;;;;10.43;5.68;;;16.20;74.00;;;;;;5038438;28;20040;-67
2023/07/07 04:07:14;;;;;;;8.77;5.25;;;16.20;74.00;;;;;;5075907;28;20164;-67
2023/07/07 04:09:40;;;;;;;10.13;5.60;;;16.20;74.00;;;;;;5054099;28;20400;-67
2023/07/07 04:12:09;;;;;;;9.10;5.53;;;16.20;74.70;;;;;;5074779;28;20439;-67
2023/07/07 04:14:36;;;;;;;9.50;5.30;;;16.20;74.10;;;;;;5073576;28;20036;-67
2023/07/07 04:17:02;;;;;;;12.88;6.15;;;16.20;74.10;;;;;;5041488;28;20021;-67
2023/07/07 04:19:28;;;;;;;9.95;6.18;;;16.20;74.10;;;;;;5056620;28;20038;-67
2023/07/07 04:21:53;;;;;;;9.77;6.15;;;16.20;74.20;;;;;;5039790;28;20025;-67
2023/07/07 04:24:23;;;;;;;10.15;5.90;;;16.20;74.20;;;;;;5038875;28;20024;-67
2023/07/07 04:26:50;;;;;;;8.48;5.30;;;16.20;74.20;;;;;;5057718;28;20027;-67
2023/07/07 04:29:16;;;;;;;8.80;5.93;;;16.20;74.20;;;;;;5073922;28;20477;-67
2023/07/07 04:31:45;;;;;;;8.88;5.72;;;16.30;74.30;;;;;;5055440;28;20119;-67
2023/07/07 04:34:16;;;;;;;10.43;6.45;;;16.30;74.30;;;;;;5072141;28;20078;-67
2023/07/07 04:36:42;;;;;;;10.02;6.00;;;16.30;74.30;;;;;;5055029;28;20058;-67
2023/07/07 04:39:07;;;;;;;10.23;6.03;;;16.30;74.20;;;;;;5070217;28;20027;-68
2023/07/07 04:41:33;;;;;;;9.48;5.97;;;16.40;74.30;;;;;;5074305;28;20025;-68
2023/07/07 04:44:00;;;;;;;9.75;6.03;;;16.40;74.40;;;;;;5072355;28;20415;-67
2023/07/07 04:46:38;;;;;;;9.13;6.05;;;16.40;74.40;;;;;;5054921;28;20050;-68
2023/07/07 04:49:08;;;;;;;9.00;5.93;;;16.50;74.50;;;;;;5038763;28;20146;-67
2023/07/07 04:51:39;;;;;;;9.10;5.85;;;16.50;74.50;;;;;;5054024;28;20529;-70
2023/07/07 04:54:06;;;;;;;10.27;6.32;;;16.50;74.50;;;;;;5037804;28;20369;-67
2023/07/07 04:56:33;;;;;;;10.07;6.13;;;16.60;74.50;;;;;;5073730;28;20031;-67
2023/07/07 04:58:59;;;;;;;10.60;6.50;;;16.60;74.60;;;;;;5075258;28;20043;-67
2023/07/07 05:01:28;;;;;;;8.35;5.35;;;16.60;74.50;;;;;;5057492;28;20029;-67
2023/07/07 05:03:59;;;;;;;11.75;6.05;;;16.70;74.60;;;;;;5068254;28;20021;-67
2023/07/07 05:06:27;;;;;;;10.57;6.03;;;16.80;74.60;;;;;;5052087;28;20033;-67
2023/07/07 05:08:53;;;;;;;9.60;6.20;;;16.80;74.60;;;;;;5069392;28;20021;-67
2023/07/07 05:11:22;;;;;;;10.90;6.50;;;16.90;74.60;;;;;;5051813;28;20089;-66
2023/07/07 05:13:48;;;;;;;9.52;6.35;;;16.90;74.50;;;;;;5069305;28;20036;-67
2023/07/07 05:16:17;;;;;;;9.32;5.72;;;17.00;74.50;;;;;;5068781;28;20453;-67
2023/07/07 05:18:43;;;;;;;9.85;6.22;;;17.10;74.30;;;;;;5066851;28;20025;-67
2023/07/07 05:21:11;;;;;;;9.50;5.70;;;17.20;74.20;;;;;;5068434;28;20338;-67
2023/07/07 05:23:37;;;;;;;9.70;5.03;;;17.30;74.20;;;;;;5068707;28;20039;-64
2023/07/07 05:26:03;;;;;;;9.13;5.93;;;17.40;74.10;;;;;;5068753;28;20124;-65
2023/07/07 05:28:29;;;;;;;10.00;5.72;;;17.50;73.90;;;;;;5044671;28;20100;-64
2023/07/07 05:30:55;;;;;;;10.50;6.57;;;17.60;73.70;;;;;;5068564;28;20088;-63
2023/07/07 05:33:21;;;;;;;11.27;5.50;;;17.70;73.50;;;;;;5067644;28;20020;-63
2023/07/07 05:35:55;;;;;;;9.68;5.97;;;17.80;73.40;;;;;;5065915;28;20016;-63
2023/07/07 05:38:24;;;;;;;8.55;5.63;;;17.90;73.20;;;;;;5067512;28;20122;-65
2023/07/07 05:40:50;;;;;;;10.80;5.95;;;18.10;73.00;;;;;;5067913;28;20031;-63
2023/07/07 05:43:17;;;;;;;13.05;5.45;;;18.20;72.70;;;;;;5068835;28;20475;-63
2023/07/07 05:45:44;;;;;;;9.27;6.13;;;18.30;72.50;;;;;;5066371;28;20032;-63
2023/07/07 05:48:10;;;;;;;11.45;6.78;;;18.50;72.30;;;;;;5068339;28;20047;-63
2023/07/07 05:50:38;;;;;;;10.43;6.43;;;18.60;72.00;;;;;;5049744;28;20020;-64
2023/07/07 05:53:04;;;;;;;12.48;7.00;;;18.70;71.80;;;;;;5067924;28;20461;-65
2023/07/07 05:55:33;;;;;;;9.38;5.55;;;18.80;71.60;;;;;;5047508;28;20043;-64
2023/07/07 05:58:02;;;;;;;11.45;6.53;;;18.90;71.40;;;;;;5069462;28;20040;-64
2023/07/07 06:00:30;;;;;;;12.68;6.72;;;19.00;71.20;;;;;;5065703;28;20029;-64
2023/07/07 06:02:57;;;;;;;9.77;5.70;;;19.10;70.90;;;;;;5050320;28;20086;-64
2023/07/07 06:05:23;;;;;;;10.80;6.30;;;19.20;70.60;;;;;;5068162;28;20037;-64
2023/07/07 06:07:50;;;;;;;11.55;5.75;;;19.30;70.20;;;;;;5050028;28;20047;-64
2023/07/07 06:10:16;;;;;;;8.73;5.38;;;19.40;70.00;;;;;;5068480;28;20036;-64
2023/07/07 06:12:42;;;;;;;10.05;5.53;;;19.50;69.80;;;;;;5068371;28;20055;-64
2023/07/07 06:15:09;;;;;;;11.70;5.60;;;19.60;69.50;;;;;;5066457;28;20455;-65
2023/07/07 06:17:35;;;;;;;11.52;5.85;;;19.70;69.30;;;;;;5067707;28;20425;-65
2023/07/07 06:20:01;;;;;;;10.55;5.80;;;19.80;69.00;;;;;;5068278;28;20048;-63
2023/07/07 06:22:27;;;;;;;7.82;4.72;;;19.90;68.80;;;;;;5066477;28;20115;-64
2023/07/07 06:24:53;;;;;;;10.63;5.35;;;20.00;68.60;;;;;;5068566;28;20116;-64
2023/07/07 06:27:19;;;;;;;8.50;4.57;;;20.10;68.40;;;;;;5068123;28;20047;-63
2023/07/07 06:29:45;;;;;;;9.70;4.70;;;20.20;68.20;;;;;;5044259;28;20021;-63
2023/07/07 06:32:11;;;;;;;8.38;4.25;;;20.30;67.80;;;;;;5067284;28;20027;-64
2023/07/07 06:34:37;;;;;;;8.43;4.63;;;20.40;67.50;;;;;;5067607;28;20436;-64
2023/07/07 06:37:03;;;;;;;10.02;4.28;;;20.50;67.20;;;;;;5051097;28;20108;-64
2023/07/07 06:39:29;;;;;;;8.38;4.53;;;20.60;66.70;;;;;;5065642;28;20679;-64
2023/07/07 06:41:55;;;;;;;9.50;4.63;;;20.70;66.20;;;;;;5069052;28;20064;-64
2023/07/07 06:44:23;;;;;;;8.15;4.57;;;20.90;65.60;;;;;;5049937;28;20040;-65
2023/07/07 06:46:49;;;;;;;7.18;4.13;;;21.00;65.20;;;;;;5068812;28;20056;-64
2023/07/07 06:49:15;;;;;;;10.25;5.45;;;21.20;64.90;;;;;;5070177;28;20028;-64
2023/07/07 06:51:40;;;;;;;9.77;4.25;;;21.30;64.50;;;;;;5074108;28;20041;-64
2023/07/07 06:54:06;;;;;;;8.85;4.70;;;21.40;64.00;;;;;;5055881;28;20476;-64
2023/07/07 06:56:32;;;;;;;8.98;4.30;;;21.50;63.70;;;;;;5055908;28;20043;-64
2023/07/07 06:58:57;;;;;;;9.48;4.63;;;21.70;63.40;;;;;;5072368;28;20027;-64
2023/07/07 07:01:23;;;;;;;10.80;4.95;;;21.80;63.10;;;;;;5073669;28;20390;-64
2023/07/07 07:03:49;;;;;;;9.65;4.95;;;21.90;62.40;;;;;;5055844;28;20024;-64
2023/07/07 07:06:15;;;;;;;11.32;4.68;;;22.10;62.10;;;;;;5073683;28;20024;-64
2023/07/07 07:08:41;;;;;;;10.57;4.80;;;22.20;61.50;;;;;;5072057;28;20020;-64
2023/07/07 07:11:07;;;;;;;12.63;5.10;;;22.40;61.20;;;;;;5055405;28;20094;-64
2023/07/07 07:13:33;;;;;;;8.65;4.25;;;22.50;60.80;;;;;;5073843;28;20036;-64
2023/07/07 07:15:59;;;;;;;11.82;4.72;;;22.70;60.60;;;;;;5073557;28;20033;-64
2023/07/07 07:18:25;;;;;;;9.23;3.97;;;22.80;60.20;;;;;;5072768;28;20035;-64
2023/07/07 07:20:54;;;;;;;9.52;4.25;;;23.00;59.80;;;;;;5050123;28;20025;-64
2023/07/07 07:23:21;;;;;;;10.93;4.50;;;23.20;59.60;;;;;;5070854;28;20458;-64
2023/07/07 07:25:48;;;;;;;9.30;4.25;;;23.30;59.00;;;;;;5052740;28;20120;-64
2023/07/07 07:28:15;;;;;;;10.18;4.18;;;23.50;58.70;;;;;;5072288;28;20021;-64
2023/07/07 07:30:42;;;;;;;8.00;3.72;;;23.60;58.30;;;;;;5054445;28;20031;-64
2023/07/07 07:33:14;;;;;;;9.98;4.30;;;23.80;58.10;;;;;;5077199;28;20032;-64
2023/07/07 07:35:41;;;;;;;6.95;3.47;;;24.00;57.70;;;;;;5072907;28;20545;-64
2023/07/07 07:38:08;;;;;;;8.73;4.15;;;24.10;57.30;;;;;;5076658;28;20461;-64
2023/07/07 07:40:34;;;;;;;11.48;4.90;;;24.30;57.30;;;;;;5071021;28;20112;-64
2023/07/07 07:43:00;;;;;;;10.00;4.55;;;24.50;56.30;;;;;;5075887;28;20465;-64
2023/07/07 07:45:26;;;;;;;9.77;4.25;;;24.60;55.20;;;;;;5075329;28;20028;-64
2023/07/07 07:47:52;;;;;;;8.43;3.42;;;24.70;54.50;;;;;;5058871;28;20090;-64
2023/07/07 07:50:20;;;;;;;8.68;3.25;;;24.90;53.80;;;;;;5050609;28;20384;-64
2023/07/07 07:52:46;;;;;;;7.45;3.17;;;24.90;53.50;;;;;;5074198;28;20021;-64
2023/07/07 07:55:14;;;;;;;9.35;3.35;;;25.10;53.20;;;;;;5074971;28;20066;-64
2023/07/07 07:57:41;;;;;;;7.18;3.22;;;25.20;53.00;;;;;;5075641;28;20066;-65
2023/07/07 08:00:07;;;;;;;8.07;3.40;;;25.30;53.00;;;;;;5074967;28;20060;-64
2023/07/07 08:02:38;;;;;;;8.32;3.40;;;25.50;53.20;;;;;;5074042;28;20032;-64
2023/07/07 08:05:05;;;;;;;6.95;3.42;;;25.60;52.70;;;;;;5074548;28;20123;-64
2023/07/07 08:07:31;;;;;;;5.88;2.40;;;25.70;52.00;;;;;;5074884;28;20173;-64
2023/07/07 08:09:57;;;;;;;5.45;2.33;;;25.80;51.30;;;;;;5076703;28;20306;-64
2023/07/07 08:12:23;;;;;;;6.65;2.80;;;25.90;50.80;;;;;;5075223;28;20016;-64
2023/07/07 08:14:49;;;;;;;5.88;2.30;;;26.00;50.60;;;;;;5076506;28;20043;-64
2023/07/07 08:17:15;;;;;;;5.35;2.30;;;26.10;50.00;;;;;;5076837;28;20060;-64
2023/07/07 08:19:43;;;;;;;5.25;2.22;;;26.10;49.60;;;;;;5058533;28;20473;-64
2023/07/07 08:22:14;;;;;;;5.72;2.00;;;26.20;49.20;;;;;;5074285;28;20060;-64
2023/07/07 08:24:40;;;;;;;;;;;26.30;49.10;;;;;;5076410;28;20028;-64
2023/07/07 08:27:07;;;;;;;5.72;1.95;;;26.30;49.50;;;;;;5058595;28;19923;-64
2023/07/07 08:29:33;;;;;;;5.18;2.10;;;26.40;49.50;;;;;;5076246;28;20021;-64
2023/07/07 08:31:59;;;;;;;6.43;2.00;;;26.60;49.20;;;;;;5057256;28;20094;-64
2023/07/07 08:34:25;;;;;;;6.88;2.33;;;26.60;48.60;;;;;;5075629;28;20132;-64
2023/07/07 08:36:54;;;;;;;6.18;2.00;;;26.70;48.30;;;;;;5058446;28;20032;-64
2023/07/07 08:39:21;;;;;;;5.80;2.10;;;26.80;48.10;;;;;;5075810;28;20432;-64
2023/07/07 08:41:59;;;;;;;5.00;1.77;;;26.90;47.60;;;;;;5074836;28;20032;-64
2023/07/07 08:44:26;;;;;;;6.57;2.20;;;27.00;46.80;;;;;;5074313;28;20442;-64
2023/07/07 08:47:14;;;;;;;6.28;2.28;;;27.00;46.90;;;;;;5075793;28;20056;-64
2023/07/07 08:50:01;;;;;;;6.50;2.28;;;27.10;46.30;;;;;;5058245;28;20072;-64
2023/07/07 08:52:46;;;;;;;6.90;1.98;;;27.20;46.10;;;;;;5074928;28;20436;-64
2023/07/07 08:55:33;;;;;;;4.70;1.90;;;27.30;46.30;;;;;;5074734;28;20082;-64
2023/07/07 08:58:04;;;;;;;4.68;1.75;;;27.40;45.70;;;;;;5057833;28;20034;-64
2023/07/07 09:00:49;;;;;;;4.90;2.10;;;27.40;45.70;;;;;;5075642;28;20036;-64
2023/07/07 09:03:17;;;;;;;4.90;1.80;;;27.50;45.20;;;;;;5074611;28;20044;-63
2023/07/07 09:06:05;;;;;;;5.15;2.05;;;27.60;45.30;;;;;;5074785;28;20399;-64
2023/07/07 09:08:39;;;;;;;5.25;2.17;;;27.70;44.60;;;;;;5075459;28;20074;-64
2023/07/07 09:11:25;;;;;;;6.35;2.20;;;27.80;44.30;;;;;;5057726;28;20342;-64
2023/07/07 09:13:56;;;;;;;3.97;1.85;;;27.90;44.10;;;;;;5074667;28;20032;-64
2023/07/07 09:16:29;;;;;;;4.63;2.05;;;28.00;43.90;;;;;;5057009;28;20344;-64
2023/07/07 09:19:05;;;;;;;4.18;1.75;;;28.10;43.60;;;;;;5057769;28;20037;-64
2023/07/07 09:21:42;;;;;;;5.38;2.20;;;28.20;43.60;;;;;;5057304;28;20032;-64
2023/07/07 09:24:29;;;;;;;4.90;1.90;;;28.30;43.50;;;;;;5056625;28;20139;-64
2023/07/07 09:27:01;;;;;;;4.00;1.70;;;28.40;43.50;;;;;;5074817;28;20025;-64
2023/07/07 09:29:29;;;;;;;4.50;1.85;;;28.50;43.30;;;;;;5075209;28;20031;-64
2023/07/07 09:31:57;;;;;;;5.20;1.85;;;28.50;42.90;;;;;;5075169;28;20032;-64
2023/07/07 09:34:23;;;;;;;6.25;2.20;;;28.60;42.80;;;;;;5074001;28;20048;-64
2023/07/07 09:37:05;;;;;;;4.18;1.70;;;28.60;42.70;;;;;;5056727;28;20089;-64
2023/07/07 09:39:50;;;;;;;4.45;1.67;;;28.70;42.40;;;;;;5070043;28;20131;-64
2023/07/07 09:42:38;;;;;;;5.72;2.10;;;28.80;42.30;;;;;;5056913;28;20068;-64
2023/07/07 09:45:07;;;;;;;7.60;1.70;;;28.80;42.10;;;;;;5055259;28;20012;-64
2023/07/07 09:48:09;;;;;;;6.72;2.05;;;28.90;42.20;;;;;;5070354;28;20154;-64
2023/07/07 09:51:07;;;;;;;3.88;1.60;;;29.00;42.10;;;;;;5057087;28;20036;-64
2023/07/07 09:53:39;;;;;;;5.20;2.10;;;29.00;41.70;;;;;;5074149;28;20075;-64
2023/07/07 09:56:10;;;;;;;5.32;1.73;;;29.10;42.00;;;;;;5054397;28;20357;-64
2023/07/07 09:58:51;;;;;;;6.97;2.22;;;29.20;41.70;;;;;;5056927;28;20032;-64
2023/07/07 10:01:18;;;;;;;;;;;29.20;41.50;;;;;;5074877;28;20089;-64
2023/07/07 10:03:46;;;;;;;3.35;1.77;;;29.30;42.00;;;;;;5039925;28;19961;-64
2023/07/07 10:06:33;;;;;;;7.30;2.28;;;29.30;41.80;;;;;;5072281;28;20047;-64
2023/07/07 10:08:59;;;;;;;5.72;2.03;;;29.40;42.20;;;;;;5074603;28;20089;-64
2023/07/07 10:11:30;;;;;;;4.55;1.92;;;29.40;41.00;;;;;;5056612;28;20103;-64
2023/07/07 10:13:57;;;;;;;5.78;2.05;;;29.50;40.80;;;;;;5074379;28;20051;-64
2023/07/07 10:16:32;;;;;;;3.53;1.60;;;29.50;40.40;;;;;;5055123;28;20056;-64
2023/07/07 10:19:13;;;;;;;3.83;1.50;;;29.50;40.00;;;;;;5060585;28;20043;-64
2023/07/07 10:21:39;;;;;;;3.95;1.63;;;29.50;39.70;;;;;;5074337;28;20123;-64
2023/07/07 10:24:04;;;;;;;5.43;1.80;;;29.60;40.00;;;;;;5074217;28;20099;-64
2023/07/07 10:26:30;;;;;;;4.90;1.80;;;29.60;39.50;;;;;;5054646;28;20028;-64
2023/07/07 10:28:59;;;;;;;4.88;2.17;;;29.70;39.30;;;;;;5073377;28;20021;-64
2023/07/07 10:31:27;;;;;;;4.53;2.00;;;29.80;39.40;;;;;;5074093;28;20044;-64
2023/07/07 10:34:02;;;;;;;5.78;2.13;;;29.90;39.40;;;;;;5056168;28;20449;-64
2023/07/07 10:36:32;;;;;;;6.70;2.00;;;29.90;39.40;;;;;;5073027;28;20028;-64
2023/07/07 10:38:59;;;;;;;5.47;2.00;;;30.00;39.10;;;;;;5072985;28;20032;-64
2023/07/07 10:41:26;;;;;;;5.93;2.10;;;30.00;38.80;;;;;;5073705;28;20154;-64
2023/07/07 10:43:53;;;;;;;4.38;1.70;;;30.00;38.60;;;;;;5073893;28;20031;-64
2023/07/07 10:46:19;;;;;;;4.75;1.90;;;30.00;38.70;;;;;;5073932;28;20378;-64
2023/07/07 10:48:46;;;;;;;4.80;2.00;;;30.00;38.90;;;;;;5071340;28;20434;-64
2023/07/07 10:51:27;;;;;;;3.75;1.55;;;30.00;38.80;;;;;;5073566;28;20032;-64
2023/07/07 10:54:22;;;;;;;4.88;2.00;;;30.10;38.80;;;;;;5074257;28;20036;-62
2023/07/07 10:56:55;;;;;;;5.47;2.20;;;30.10;38.80;;;;;;5053424;28;20052;-61
2023/07/07 10:59:28;;;;;;;5.28;2.08;;;30.10;38.40;;;;;;5054485;28;20029;-61
2023/07/07 11:02:23;;;;;;;7.15;2.65;;;30.10;38.40;;;;;;5073627;28;20120;-62
2023/07/07 11:05:26;;;;;;;4.22;1.83;;;30.10;38.10;;;;;;5055650;28;20056;-62
2023/07/07 11:07:54;;;;;;;4.80;2.00;;;30.10;38.10;;;;;;5076995;28;20024;-64
2023/07/07 11:10:35;;;;;;;6.00;2.00;;;30.00;38.10;;;;;;5076993;28;20090;-64
2023/07/07 11:13:16;;;;;;;4.68;1.92;;;30.00;38.30;;;;;;5077223;28;20126;-64
2023/07/07 11:15:58;;;;;;;5.47;2.35;;;30.00;38.60;;;;;;5059474;28;20080;-64
2023/07/07 11:18:37;;;;;;;4.13;1.80;;;30.10;39.00;;;;;;5076411;28;20381;-64
2023/07/07 11:21:31;;;;;;;5.75;2.05;;;30.20;38.60;;;;;;5076427;28;20035;-64
2023/07/07 11:24:19;;;;;;;5.93;2.22;;;30.20;38.50;;;;;;5077558;28;20036;-64
2023/07/07 11:27:03;;;;;;;4.65;1.92;;;30.10;38.80;;;;;;5077101;28;20470;-64
2023/07/07 11:29:58;;;;;;;5.82;2.08;;;30.20;38.40;;;;;;5057823;28;20033;-64
2023/07/07 11:32:32;;;;;;;5.70;2.17;;;30.20;38.90;;;;;;5042850;28;20043;-64
2023/07/07 11:35:18;;;;;;;5.68;2.08;;;30.10;38.70;;;;;;5072796;28;20336;-64
2023/07/07 11:38:12;;;;;;;6.55;2.30;;;30.10;38.40;;;;;;5051810;28;20035;-64
2023/07/07 11:40:59;;;;;;;4.82;2.20;;;30.10;38.40;;;;;;5052321;28;20079;-65
2023/07/07 11:43:35;;;;;;;5.43;2.20;;;30.10;38.50;;;;;;5059980;28;20051;-65
2023/07/07 11:46:39;;;;;;;4.78;1.88;;;30.10;38.40;;;;;;5070153;28;20050;-65
2023/07/07 11:49:24;;;;;;;4.05;1.77;;;30.10;38.50;;;;;;5070866;28;20344;-65
2023/07/07 11:51:58;;;;;;;6.07;2.25;;;30.10;38.60;;;;;;5051032;28;20051;-65
2023/07/07 11:54:29;;;;;;;5.93;2.53;;;30.10;38.60;;;;;;5069785;28;20024;-65
2023/07/07 11:57:11;;;;;;;4.85;2.13;;;30.00;38.60;;;;;;5071424;28;20247;-64
2023/07/07 11:59:52;;;;;;;5.30;2.03;;;30.00;38.70;;;;;;5065753;28;20028;-65
2023/07/07 12:02:32;;;;;;;5.07;1.77;;;29.90;38.70;;;;;;5069637;28;20017;-65
2023/07/07 12:05:01;;;;;;;5.07;2.17;;;29.90;38.90;;;;;;5052634;28;20062;-65
2023/07/07 12:07:35;;;;;;;4.88;1.98;;;29.80;38.90;;;;;;5069291;28;20013;-65
2023/07/07 12:10:20;;;;;;;5.40;2.55;;;29.70;39.00;;;;;;5049487;28;20063;-65
2023/07/07 12:12:49;;;;;;;6.05;1.95;;;29.70;39.10;;;;;;5070191;28;20115;-65
2023/07/07 12:15:25;;;;;;;5.40;2.00;;;29.60;39.10;;;;;;5051863;28;20415;-65
2023/07/07 12:18:09;;;;;;;6.28;2.35;;;29.50;39.10;;;;;;5068872;28;20040;-65
2023/07/07 12:20:42;;;;;;;5.90;2.50;;;29.40;39.10;;;;;;5069401;28;20028;-65
2023/07/07 12:23:15;;;;;;;5.80;2.20;;;29.40;39.50;;;;;;5050435;28;20399;-65
2023/07/07 12:25:41;;;;;;;6.97;2.33;;;29.30;38.90;;;;;;5049294;28;20962;-65
2023/07/07 12:28:09;;;;;;;6.07;2.30;;;29.30;38.70;;;;;;5053443;28;20043;-64
2023/07/07 12:30:46;;;;;;;4.97;2.33;;;29.20;38.90;;;;;;5051238;28;21514;-64
2023/07/07 12:33:14;;;;;;;5.75;2.05;;;29.10;38.90;;;;;;5066961;28;20095;-65
2023/07/07 12:35:47;;;;;;;5.88;2.28;;;29.00;38.50;;;;;;5051222;28;20029;-65
2023/07/07 12:38:18;;;;;;;4.70;2.00;;;28.90;38.20;;;;;;5069190;28;20020;-65
2023/07/07 12:40:45;;;;;;;5.57;2.22;;;28.80;38.20;;;;;;5068089;28;20196;-65
2023/07/07 12:43:31;;;;;;;6.00;2.30;;;28.70;38.40;;;;;;5050848;28;20423;-64
2023/07/07 12:45:57;;;;;;;6.75;2.58;;;28.60;38.10;;;;;;5067975;28;20024;-64
2023/07/07 12:48:27;;;;;;;7.05;2.65;;;28.60;38.20;;;;;;5072563;28;20017;-64
2023/07/07 12:51:05;;;;;;;5.85;2.70;;;28.50;38.50;;;;;;5054291;28;20385;-65
2023/07/07 12:53:41;;;;;;;5.07;2.15;;;28.50;38.80;;;;;;5056992;28;20115;-64
2023/07/07 12:56:07;;;;;;;5.00;2.38;;;28.40;39.20;;;;;;5069405;28;20024;-64
2023/07/07 12:58:36;;;;;;;4.10;1.77;;;28.40;39.50;;;;;;5075253;28;20035;-64
2023/07/07 13:01:09;;;;;;;5.50;2.15;;;28.40;39.60;;;;;;5075167;28;20022;-64
2023/07/07 13:03:43;;;;;;;6.78;2.22;;;28.40;39.30;;;;;;5075463;28;20024;-64